Oak Hill, WV

5:03 PM EST on February 07, 2016 (GMT -0500)
F.I.T. - Oyler Ave. | | Change Station
CLOSE
Current Station
Personal Weather Station
Location: Oak Hill, WV
Elevation: 1988 ft
Nearby Weather Stations

Elev 1988 ft 37.99 °N, 81.15 °W | Updated 0 second ago

Clear
Clear
46.5 °F
Feels Like 46 °F
N
2.0
Wind Variable Wind from ENE
Gusts 3.0 mph

Today
High -- | Low -- °F
--% Chance of Precip.
Yesterday
High -- | Low -- °F
Precip. -- in
Pressure 29.97 in
Visibility 10.0 miles
Clouds Clear
Windchill 46 °F
Dew Point 26 °F
Humidity 44%
Rainfall 0.00 in
Snow Depth Not available.
7:23 AM 5:53 PM
Waning Crescent, 1% visible
METAR KBKW 072151Z AUTO 35006KT 10SM CLR 07/M06 A2991 RMK AO2 SLP149 T00671061
Pressure 29.97 in
Visibility 10.0 miles
Clouds Clear
Windchill 46 °F
Dew Point 26 °F
Humidity 44%
Rainfall 0.00 in
Snow Depth Not available.
7:23 AM 5:53 PM
Waning Crescent, 1% visible
METAR KBKW 072151Z AUTO 35006KT 10SM CLR 07/M06 A2991 RMK AO2 SLP149 T00671061

10-Day Weather Forecast

Almanac

Astronomy

Feb. 07, 2016 Rise Set
Actual Time
Civil Twilight
Nautical Twilight
Astronomical Twilight
Moon
Length of Visible Light
Length of Day
Tomorrow will be .
, % of the Moon is Illuminated

Today's Extremes

State Highs State Lows

Community

WunderPhotos

Upload Photos

1,891,304 photos uploaded!

WunderBlog® & News

Nearby

Air Quality

  Air Quality AQ Index Pollutant
Not available.

Snow Depth

Station Depth Elevation

Earthquake Activity

City Distance Mag. Time & Date
Minimum magnitude displayed is 2.5.

Coastal Water Temperatures

Place Temperature

Stations

Nearby Weather Stations

Station Location Temp. Windchill Dew Point Humidity Wind Precip. Elev Updated Type
                   

Watches & Warnings

There are currently no watches in effect.